Time;durP1;ratioP1;P1;durP2;ratioP2;P2;SDS_P1;SDS_P2;PMS_P1;PMS_P2;Temp;Humidity;BMP_temperature;BMP_pressure;BME280_temperature;BME280_humidity;BME280_pressure;Samples;Min_cycle;Max_cycle;Signal;HPM_P1;HPM_P2
2023/10/21 00:00:43;;;;;;;10.30;6.20;;;;;;;8.67;99.29;98526.34;109160;275;39500;-66
2023/10/21 00:03:39;;;;;;;7.20;5.30;;;;;;;8.67;99.54;98533.28;109197;275;38371;-69
2023/10/21 00:06:13;;;;;;;7.10;5.10;;;;;;;8.65;99.59;98529.23;109083;275;175510;-69
2023/10/21 00:08:49;;;;;;;5.90;4.90;;;;;;;8.64;99.69;98517.30;109223;275;38551;-66
2023/10/21 00:11:30;;;;;;;6.40;5.10;;;;;;;8.63;99.63;98516.69;109198;275;38389;-67
2023/10/21 00:14:08;;;;;;;8.30;5.40;;;;;;;8.60;99.92;98522.58;109194;275;38566;-65
2023/10/21 00:16:45;;;;;;;5.20;4.50;;;;;;;8.60;99.97;98525.52;109216;275;38589;-65
2023/10/21 00:19:23;;;;;;;7.30;4.60;;;;;;;8.65;99.91;98524.56;109180;275;39750;-69
2023/10/21 00:22:05;;;;;;;7.20;5.10;;;;;;;8.66;99.98;98536.14;109051;275;188986;-69
2023/10/21 00:24:46;;;;;;;7.90;5.30;;;;;;;8.67;100.00;98535.03;109206;275;38275;-66
2023/10/21 00:27:27;;;;;;;9.60;6.90;;;;;;;8.67;100.00;98540.60;109176;275;38336;-65
2023/10/21 00:30:07;;;;;;;8.00;6.20;;;;;;;8.67;100.00;98552.63;108998;275;39388;-69
2023/10/21 00:32:51;;;;;;;10.50;7.80;;;;;;;8.66;100.00;98564.63;109123;275;38394;-69
2023/10/21 00:35:25;;;;;;;8.90;6.20;;;;;;;8.67;100.00;98563.36;109177;275;39064;-69
2023/10/21 00:37:59;;;;;;;11.50;6.10;;;;;;;8.69;100.00;98562.22;109158;275;38384;-69
2023/10/21 00:40:33;;;;;;;7.00;5.20;;;;;;;8.70;100.00;98553.60;109174;275;39236;-71
2023/10/21 00:43:07;;;;;;;7.70;5.80;;;;;;;8.72;100.00;98541.69;109220;275;38228;-70
2023/10/21 00:45:43;;;;;;;9.40;6.80;;;;;;;8.74;100.00;98545.36;109220;275;39551;-70
2023/10/21 00:48:24;;;;;;;6.20;5.20;;;;;;;8.75;100.00;98553.35;109146;275;39448;-67
2023/10/21 00:51:01;;;;;;;7.50;5.90;;;;;;;8.77;100.00;98558.45;109195;275;39402;-66
2023/10/21 00:53:42;;;;;;;7.20;5.60;;;;;;;8.77;100.00;98560.70;109204;275;39093;-69
2023/10/21 00:56:22;;;;;;;6.10;5.50;;;;;;;8.78;100.00;98559.96;109190;275;39372;-70
2023/10/21 00:59:01;;;;;;;7.80;5.40;;;;;;;8.81;100.00;98569.32;109223;275;38356;-67
2023/10/21 01:01:43;;;;;;;9.00;5.80;;;;;;;8.84;100.00;98566.23;109134;275;39493;-67
2023/10/21 01:04:17;;;;;;;8.60;6.40;;;;;;;8.85;100.00;98563.72;109132;275;38615;-69
2023/10/21 01:06:54;;;;;;;7.70;5.70;;;;;;;8.85;100.00;98551.52;109241;275;38682;-70
2023/10/21 01:09:28;;;;;;;6.60;5.30;;;;;;;8.88;100.00;98550.65;109312;275;38784;-70
2023/10/21 01:12:07;;;;;;;7.60;5.70;;;;;;;8.91;100.00;98553.75;109163;275;175564;-69
2023/10/21 01:14:41;;;;;;;7.40;5.40;;;;;;;8.90;100.00;98553.13;109190;275;175501;-67
2023/10/21 01:17:21;;;;;;;9.90;6.60;;;;;;;8.91;100.00;98565.80;109287;275;39638;-66
2023/10/21 01:20:00;;;;;;;7.30;6.10;;;;;;;8.92;100.00;98572.69;109320;275;38810;-66
2023/10/21 01:22:34;;;;;;;6.90;6.10;;;;;;;8.93;100.00;98574.51;109325;275;38163;-69
2023/10/21 01:25:10;;;;;;;10.10;6.70;;;;;;;8.94;100.00;98566.98;109354;275;38833;-69
2023/10/21 01:27:48;;;;;;;7.50;5.70;;;;;;;8.94;99.98;98556.38;109282;275;38744;-66
2023/10/21 01:30:28;;;;;;;7.40;6.40;;;;;;;8.94;99.97;98552.20;109300;275;39635;-65
2023/10/21 01:33:16;;;;;;;8.50;6.00;;;;;;;8.91;100.00;98557.05;109315;275;38784;-66
2023/10/21 01:35:58;;;;;;;9.40;6.80;;;;;;;8.90;100.00;98550.18;109273;275;38446;-65
2023/10/21 01:38:40;;;;;;;9.50;6.40;;;;;;;8.91;100.00;98554.46;109168;275;177385;-70
2023/10/21 01:41:18;;;;;;;8.20;6.70;;;;;;;8.91;100.00;98562.13;109320;275;38413;-70
2023/10/21 01:43:52;;;;;;;8.00;6.10;;;;;;;8.91;100.00;98557.74;109413;275;39612;-69
2023/10/21 01:46:28;;;;;;;8.10;6.30;;;;;;;8.94;100.00;98559.48;109376;275;39614;-69
2023/10/21 01:49:02;;;;;;;10.40;6.70;;;;;;;8.92;100.00;98557.68;109412;275;39383;-70
2023/10/21 01:51:37;;;;;;;10.20;6.30;;;;;;;8.91;100.00;98562.80;109376;275;38149;-69
2023/10/21 01:54:11;;;;;;;8.20;6.20;;;;;;;8.90;100.00;98573.32;109333;275;38729;-66
2023/10/21 01:56:54;;;;;;;11.80;6.60;;;;;;;8.91;100.00;98568.38;109269;275;39217;-66
2023/10/21 01:59:37;;;;;;;9.80;6.50;;;;;;;8.94;100.00;98565.39;109355;275;38493;-67
2023/10/21 02:02:22;;;;;;;7.90;6.60;;;;;;;8.95;100.00;98559.93;109266;275;38284;-67
2023/10/21 02:04:59;;;;;;;8.40;6.00;;;;;;;8.96;100.00;98565.27;109341;275;38782;-70
2023/10/21 02:07:35;;;;;;;8.50;6.50;;;;;;;8.98;100.00;98566.54;109031;275;40530;-67
2023/10/21 02:10:13;;;;;;;11.60;7.60;;;;;;;9.01;100.00;98556.11;109268;275;38508;-67
2023/10/21 02:12:56;;;;;;;10.70;6.80;;;;;;;9.00;100.00;98565.90;109387;275;38336;-66
2023/10/21 02:15:37;;;;;;;10.80;6.90;;;;;;;8.98;100.00;98571.97;109312;275;39368;-66
2023/10/21 02:18:18;;;;;;;7.70;6.60;;;;;;;8.94;100.00;98573.55;109283;275;38258;-69
2023/10/21 02:20:56;;;;;;;7.60;6.40;;;;;;;8.95;100.00;98574.36;109312;275;38503;-71
2023/10/21 02:23:35;;;;;;;8.70;6.40;;;;;;;8.98;100.00;98574.04;109283;275;39981;-69
2023/10/21 02:26:16;;;;;;;8.50;6.50;;;;;;;8.98;100.00;98566.91;109231;275;38447;-70
2023/10/21 02:28:52;;;;;;;8.80;6.70;;;;;;;8.99;100.00;98572.23;109267;275;39236;-69
2023/10/21 02:31:28;;;;;;;9.10;6.60;;;;;;;9.00;100.00;98582.77;109086;275;172822;-70
2023/10/21 02:34:04;;;;;;;7.60;6.40;;;;;;;9.01;100.00;98581.50;109050;275;39714;-69
2023/10/21 02:36:46;;;;;;;8.90;6.70;;;;;;;9.05;100.00;98589.45;109238;275;38269;-69
2023/10/21 02:39:26;;;;;;;8.40;6.90;;;;;;;9.05;100.00;98587.84;109316;275;38435;-66
2023/10/21 02:42:02;;;;;;;11.50;6.90;;;;;;;9.09;100.00;98591.64;109180;275;38153;-66
2023/10/21 02:44:39;;;;;;;7.80;6.50;;;;;;;9.11;100.00;98595.55;109199;275;38434;-70
2023/10/21 02:47:13;;;;;;;7.80;6.60;;;;;;;9.14;100.00;98609.23;109205;275;38452;-70
2023/10/21 02:49:48;;;;;;;9.60;7.10;;;;;;;9.17;100.00;98607.54;108606;275;663925;-69
2023/10/21 02:52:28;;;;;;;8.50;7.50;;;;;;;9.17;100.00;98610.98;109166;275;38797;-69
2023/10/21 02:55:07;;;;;;;9.50;7.00;;;;;;;9.15;100.00;98601.38;109214;275;38528;-66
2023/10/21 02:57:44;;;;;;;10.80;7.90;;;;;;;9.13;100.00;98599.39;109185;275;38746;-69
2023/10/21 03:00:27;;;;;;;10.00;7.00;;;;;;;9.12;100.00;98584.88;109199;275;38266;-71
2023/10/21 03:03:05;;;;;;;9.40;7.20;;;;;;;9.11;100.00;98578.83;109226;275;39586;-67
2023/10/21 03:05:43;;;;;;;8.40;7.20;;;;;;;9.12;100.00;98569.71;109226;275;38499;-66
2023/10/21 03:08:24;;;;;;;10.20;7.40;;;;;;;9.13;100.00;98576.80;109185;275;38195;-70
2023/10/21 03:11:03;;;;;;;9.80;7.50;;;;;;;9.12;100.00;98586.77;109217;275;38411;-69
2023/10/21 03:13:42;;;;;;;9.50;7.10;;;;;;;9.12;100.00;98582.42;109239;275;38178;-66
2023/10/21 03:16:17;;;;;;;7.90;6.60;;;;;;;9.15;100.00;98586.23;109019;275;38320;-66
2023/10/21 03:18:53;;;;;;;8.30;6.90;;;;;;;9.15;100.00;98591.08;109200;275;38295;-72
2023/10/21 03:21:28;;;;;;;8.00;6.50;;;;;;;9.15;100.00;98591.64;109155;275;38285;-70
2023/10/21 03:24:03;;;;;;;7.60;6.60;;;;;;;9.17;100.00;98589.09;109215;275;38354;-71
2023/10/21 03:26:37;;;;;;;8.20;6.80;;;;;;;9.18;100.00;98580.80;109139;275;39059;-71
2023/10/21 03:29:11;;;;;;;11.90;7.60;;;;;;;9.21;100.00;98584.30;109270;275;38428;-70
2023/10/21 03:31:49;;;;;;;8.30;7.30;;;;;;;9.19;100.00;98588.06;109215;275;38271;-70
2023/10/21 03:34:27;;;;;;;8.70;6.90;;;;;;;9.18;100.00;98595.09;109225;275;38754;-66
2023/10/21 03:37:07;;;;;;;8.80;7.00;;;;;;;9.18;100.00;98597.54;109201;275;38566;-66
2023/10/21 03:39:43;;;;;;;8.20;7.20;;;;;;;9.17;100.00;98601.08;109187;275;39244;-69
2023/10/21 03:42:23;;;;;;;8.00;6.80;;;;;;;9.17;100.00;98608.87;109046;275;175241;-69
2023/10/21 03:45:09;;;;;;;9.60;7.30;;;;;;;9.19;100.00;98607.18;109184;275;38623;-66
2023/10/21 03:47:52;;;;;;;8.70;6.60;;;;;;;9.21;100.00;98613.33;109202;275;38245;-69
2023/10/21 03:50:26;;;;;;;7.60;6.80;;;;;;;9.22;100.00;98615.19;109191;275;38233;-69
2023/10/21 03:53:07;;;;;;;8.30;6.60;;;;;;;9.26;100.00;98621.73;109263;275;38855;-66
2023/10/21 03:55:48;;;;;;;8.10;6.80;;;;;;;9.31;100.00;98632.73;109166;275;38434;-66
2023/10/21 03:58:31;;;;;;;6.60;5.80;;;;;;;9.34;100.00;98634.65;109102;275;175087;-67
2023/10/21 04:01:13;;;;;;;7.40;6.60;;;;;;;9.35;100.00;98631.33;109174;275;38905;-67
2023/10/21 04:03:50;;;;;;;7.60;5.70;;;;;;;9.36;100.00;98630.02;109135;275;39642;-69
2023/10/21 04:06:37;;;;;;;8.80;6.00;;;;;;;9.40;100.00;98638.27;109121;275;39978;-69
2023/10/21 04:09:14;;;;;;;7.20;6.40;;;;;;;9.41;100.00;98639.80;109182;275;38330;-74
2023/10/21 04:11:49;;;;;;;7.20;6.40;;;;;;;9.40;100.00;98632.00;108988;275;38215;-66
2023/10/21 04:14:24;;;;;;;7.70;6.70;;;;;;;9.41;100.00;98629.87;109170;275;38349;-71
2023/10/21 04:17:01;;;;;;;8.30;6.50;;;;;;;9.41;100.00;98638.09;109159;275;38766;-70
2023/10/21 04:19:35;;;;;;;7.70;6.50;;;;;;;9.42;100.00;98634.17;109052;275;175146;-70
2023/10/21 04:22:09;;;;;;;7.40;6.70;;;;;;;9.45;100.00;98633.31;109165;275;39758;-70
2023/10/21 04:24:49;;;;;;;8.30;6.80;;;;;;;9.45;99.97;98638.52;109213;275;38481;-66
2023/10/21 04:27:29;;;;;;;7.20;6.40;;;;;;;9.49;100.00;98640.33;109159;275;38278;-67
2023/10/21 04:30:07;;;;;;;8.00;6.50;;;;;;;9.51;99.98;98648.91;109187;275;38477;-67
2023/10/21 04:32:43;;;;;;;;;;;;;;;9.52;100.00;98651.12;109232;275;38567;-70
2023/10/21 04:35:26;;;;;;;8.90;7.60;;;;;;;9.47;99.86;98647.95;109191;275;38762;-70
2023/10/21 04:38:02;;;;;;;8.60;7.20;;;;;;;9.47;99.95;98638.91;109314;275;38171;-69
2023/10/21 04:40:37;;;;;;;8.90;7.50;;;;;;;9.47;100.00;98641.71;109183;275;37910;-69
2023/10/21 04:43:12;;;;;;;8.80;7.20;;;;;;;9.46;99.79;98643.52;109230;275;39828;-69
2023/10/21 04:45:47;;;;;;;10.50;6.90;;;;;;;9.44;99.89;98634.56;109156;275;39928;-70
2023/10/21 04:48:26;;;;;;;9.00;7.20;;;;;;;9.45;99.98;98630.69;109194;275;39914;-66
2023/10/21 04:51:02;;;;;;;10.50;8.10;;;;;;;9.44;99.97;98631.77;109112;275;38431;-66
2023/10/21 04:53:41;;;;;;;10.70;8.60;;;;;;;9.44;99.98;98641.67;109223;275;38748;-69
2023/10/21 04:56:18;;;;;;;8.30;7.20;;;;;;;9.44;100.00;98653.16;109132;275;38477;-71
2023/10/21 04:58:53;;;;;;;9.90;7.20;;;;;;;9.47;100.00;98660.48;109142;275;38277;-70
2023/10/21 05:01:27;;;;;;;8.10;7.20;;;;;;;9.51;100.00;98663.58;109156;275;38951;-70
2023/10/21 05:04:01;;;;;;;9.30;7.40;;;;;;;9.52;99.94;98670.14;109130;275;38722;-70
2023/10/21 05:06:35;;;;;;;7.50;6.80;;;;;;;9.51;99.93;98666.30;109123;275;38261;-75
2023/10/21 05:09:10;;;;;;;8.80;6.60;;;;;;;9.55;100.00;98666.77;109176;268;38455;-70
2023/10/21 05:11:45;;;;;;;7.90;7.10;;;;;;;9.55;99.91;98660.68;109128;275;38755;-70
2023/10/21 05:14:28;;;;;;;8.50;7.20;;;;;;;9.58;99.94;98665.95;109231;275;38461;-67
2023/10/21 05:17:10;;;;;;;8.80;7.00;;;;;;;9.58;99.88;98677.77;109129;275;38206;-66
2023/10/21 05:19:53;;;;;;;8.40;7.40;;;;;;;9.58;99.93;98693.75;109152;275;38318;-67
2023/10/21 05:22:33;;;;;;;8.90;7.50;;;;;;;9.60;99.93;98694.69;109161;275;39112;-70
2023/10/21 05:25:20;;;;;;;9.20;6.90;;;;;;;9.61;99.79;98695.30;109202;275;38349;-66
2023/10/21 05:27:58;;;;;;;9.20;7.50;;;;;;;9.63;99.76;98688.98;109188;275;38143;-71
2023/10/21 05:30:42;;;;;;;11.30;7.90;;;;;;;9.63;99.81;98694.52;109274;275;38843;-71
2023/10/21 05:33:16;;;;;;;10.10;8.10;;;;;;;9.64;99.89;98702.64;109227;275;38665;-72
2023/10/21 05:35:52;;;;;;;9.40;8.00;;;;;;;9.64;99.78;98693.96;108967;275;38272;-69
2023/10/21 05:38:28;;;;;;;11.00;8.20;;;;;;;9.64;99.91;98685.39;109199;275;38719;-70
2023/10/21 05:41:02;;;;;;;10.10;8.20;;;;;;;9.63;99.80;98682.31;109200;275;38309;-70
2023/10/21 05:43:45;;;;;;;11.20;8.30;;;;;;;9.62;99.53;98685.89;109258;275;38766;-68
2023/10/21 05:46:28;;;;;;;9.80;7.80;;;;;;;9.59;99.67;98685.36;109181;275;39620;-66
2023/10/21 05:49:08;;;;;;;11.70;8.00;;;;;;;9.60;99.81;98697.14;109244;275;38797;-65
2023/10/21 05:51:45;;;;;;;9.60;8.20;;;;;;;9.64;100.00;98703.33;109309;275;38466;-67
2023/10/21 05:54:25;;;;;;;12.90;9.10;;;;;;;9.66;99.98;98706.38;109351;275;38239;-70
2023/10/21 05:57:03;;;;;;;13.20;9.30;;;;;;;9.67;99.92;98719.72;109340;275;38865;-69
2023/10/21 05:59:41;;;;;;;10.50;9.00;;;;;;;9.66;99.94;98725.16;109333;275;38248;-66
2023/10/21 06:02:39;;;;;;;11.10;8.70;;;;;;;9.66;99.96;98729.48;109321;275;38231;-66
2023/10/21 06:05:18;;;;;;;11.70;8.70;;;;;;;9.67;100.00;98726.85;109118;275;38519;-66
2023/10/21 06:08:01;;;;;;;10.90;8.00;;;;;;;9.64;99.94;98730.29;109403;275;38465;-69
2023/10/21 06:10:37;;;;;;;11.50;8.60;;;;;;;9.67;100.00;98733.48;109077;275;38133;-68
2023/10/21 06:13:20;;;;;;;10.30;7.90;;;;;;;9.70;100.00;98742.65;109440;275;38171;-66
2023/10/21 06:16:04;;;;;;;9.70;8.00;;;;;;;9.70;100.00;98741.60;109353;275;38488;-66
2023/10/21 06:18:51;;;;;;;9.40;7.60;;;;;;;9.74;100.00;98741.55;109332;275;38180;-66
2023/10/21 06:21:39;;;;;;;9.70;8.50;;;;;;;9.80;100.00;98738.71;109308;275;38316;-67
2023/10/21 06:24:15;;;;;;;12.90;8.30;;;;;;;9.86;100.00;98740.67;109285;275;38709;-66
2023/10/21 06:26:52;;;;;;;9.90;7.80;;;;;;;9.89;100.00;98743.64;109205;275;38805;-66
2023/10/21 06:29:30;;;;;;;10.90;8.40;;;;;;;9.90;99.97;98744.77;109238;275;40048;-70
2023/10/21 06:32:08;;;;;;;11.60;7.90;;;;;;;9.89;99.84;98734.02;109252;275;38255;-69
2023/10/21 06:34:46;;;;;;;8.50;7.70;;;;;;;9.91;99.99;98738.47;109268;275;38312;-66
2023/10/21 06:37:24;;;;;;;9.70;7.70;;;;;;;9.90;99.87;98751.36;109043;275;38472;-66
2023/10/21 06:40:04;;;;;;;9.10;8.00;;;;;;;9.93;100.00;98769.67;109204;275;38487;-66
2023/10/21 06:42:41;;;;;;;10.00;8.00;;;;;;;9.98;100.00;98773.52;109185;275;38999;-67
2023/10/21 06:45:21;;;;;;;11.70;8.70;;;;;;;10.03;100.00;98777.08;109205;275;38237;-66
2023/10/21 06:48:04;;;;;;;12.20;9.70;;;;;;;10.06;99.99;98776.02;109210;275;38439;-69
2023/10/21 06:50:41;;;;;;;15.40;9.00;;;;;;;10.06;99.81;98781.78;109258;275;39356;-70
2023/10/21 06:53:15;;;;;;;13.00;9.30;;;;;;;10.05;99.82;98787.20;109272;275;40057;-70
2023/10/21 06:55:49;;;;;;;10.70;8.50;;;;;;;10.08;99.93;98786.16;109278;275;38471;-70
2023/10/21 06:58:35;;;;;;;13.40;8.90;;;;;;;10.09;99.74;98796.90;109188;275;38422;-66
2023/10/21 07:01:14;;;;;;;11.00;8.60;;;;;;;10.14;99.98;98802.70;109221;275;38401;-66
2023/10/21 07:03:53;;;;;;;10.00;8.90;;;;;;;10.17;99.77;98807.21;109225;275;38377;-66
2023/10/21 07:06:33;;;;;;;11.50;9.50;;;;;;;10.19;99.60;98801.88;108557;275;902783;-66
2023/10/21 07:09:12;;;;;;;11.00;8.80;;;;;;;10.23;99.88;98810.66;109214;275;39655;-70
2023/10/21 07:11:46;;;;;;;10.70;8.90;;;;;;;10.29;99.82;98813.11;109241;275;39131;-70
2023/10/21 07:14:22;;;;;;;10.10;8.40;;;;;;;10.34;99.71;98822.94;109197;275;38445;-66
2023/10/21 07:17:02;;;;;;;11.40;9.20;;;;;;;10.39;99.63;98825.61;109150;275;38471;-65
2023/10/21 07:19:40;;;;;;;11.00;9.80;;;;;;;10.40;99.47;98829.39;109008;275;38252;-69
2023/10/21 07:22:14;;;;;;;14.30;9.60;;;;;;;10.40;99.30;98839.66;109192;275;38723;-69
2023/10/21 07:24:49;;;;;;;13.70;9.70;;;;;;;10.42;99.26;98835.55;109203;275;38736;-65
2023/10/21 07:27:32;;;;;;;14.80;8.60;;;;;;;10.43;99.15;98833.36;109164;275;40454;-66
2023/10/21 07:30:09;;;;;;;13.60;8.80;;;;;;;10.45;99.13;98842.30;109211;275;38289;-70
2023/10/21 07:32:47;;;;;;;13.60;9.10;;;;;;;10.50;99.33;98843.75;109229;275;38139;-69
2023/10/21 07:35:21;;;;;;;11.20;9.90;;;;;;;10.53;99.08;98842.98;109116;275;176275;-70
2023/10/21 07:37:56;;;;;;;13.40;10.20;;;;;;;10.57;99.21;98838.77;109203;275;38876;-67
2023/10/21 07:40:34;;;;;;;12.40;9.50;;;;;;;10.62;99.33;98830.07;109161;275;39558;-66
2023/10/21 07:43:16;;;;;;;14.40;9.90;;;;;;;10.64;98.92;98827.17;109224;275;39681;-70
2023/10/21 07:45:51;;;;;;;11.10;8.80;;;;;;;10.66;98.89;98828.83;109177;275;38989;-70
2023/10/21 07:48:26;;;;;;;12.60;9.10;;;;;;;10.69;98.86;98833.11;109186;275;39485;-70
2023/10/21 07:51:02;;;;;;;14.80;8.90;;;;;;;10.72;98.59;98839.59;109203;275;38264;-70
2023/10/21 07:53:38;;;;;;;11.80;9.00;;;;;;;10.72;98.42;98845.85;109188;275;38867;-70
2023/10/21 07:56:12;;;;;;;12.00;9.50;;;;;;;10.76;98.51;98836.35;109165;275;39726;-70
2023/10/21 07:58:48;;;;;;;13.80;10.00;;;;;;;10.77;98.19;98836.14;109244;275;38497;-70
2023/10/21 08:01:22;;;;;;;12.40;10.20;;;;;;;10.74;98.18;98847.81;109159;275;38296;-70
2023/10/21 08:04:01;;;;;;;14.30;10.50;;;;;;;10.72;97.91;98844.09;109029;275;38444;-66
2023/10/21 08:06:37;;;;;;;14.10;10.50;;;;;;;10.70;97.98;98839.16;109151;275;38763;-66
2023/10/21 08:09:21;;;;;;;11.60;9.50;;;;;;;10.69;98.03;98846.56;109190;275;38621;-67
2023/10/21 08:11:56;;;;;;;11.80;9.10;;;;;;;10.70;98.12;98853.80;109208;275;38531;-71
2023/10/21 08:14:40;;;;;;;12.30;9.30;;;;;;;10.69;98.05;98857.91;109249;275;38687;-66
2023/10/21 08:17:23;;;;;;;10.80;9.10;;;;;;;10.71;98.23;98861.81;109167;275;38175;-71
2023/10/21 08:20:03;;;;;;;12.10;8.80;;;;;;;10.75;98.53;98859.79;109157;275;39638;-71
2023/10/21 08:22:43;;;;;;;11.30;9.10;;;;;;;10.83;98.70;98867.45;109234;275;39958;-68
2023/10/21 08:25:20;;;;;;;15.90;10.50;;;;;;;10.91;98.66;98876.59;109198;275;38326;-67
2023/10/21 08:27:59;;;;;;;12.80;9.70;;;;;;;10.94;98.36;98879.19;109189;275;38015;-67
2023/10/21 08:30:40;;;;;;;;;;;;;;;10.94;98.04;98877.77;109163;275;39682;-68
2023/10/21 08:33:16;;;;;;;11.60;9.60;;;;;;;10.91;97.97;98883.21;109204;275;38288;-68
2023/10/21 08:35:52;;;;;;;12.60;9.10;;;;;;;10.91;97.99;98886.17;109168;275;39417;-66
2023/10/21 08:38:29;;;;;;;14.80;9.80;;;;;;;10.94;98.21;98886.52;109189;275;40093;-71
2023/10/21 08:41:03;;;;;;;12.10;10.20;;;;;;;10.98;98.22;98885.01;109185;275;38755;-70
2023/10/21 08:43:43;;;;;;;15.30;10.20;;;;;;;10.97;97.76;98889.26;109257;275;39214;-70
2023/10/21 08:46:21;;;;;;;14.90;10.10;;;;;;;11.01;98.04;98892.34;109250;275;38465;-71
2023/10/21 08:48:57;;;;;;;11.60;9.40;;;;;;;11.05;98.08;98892.41;109236;275;39799;-70
2023/10/21 08:51:33;;;;;;;12.40;10.50;;;;;;;11.10;98.21;98901.15;109198;275;39641;-70
2023/10/21 08:54:12;;;;;;;22.90;10.90;;;;;;;11.12;97.73;98908.00;109227;275;38202;-68
2023/10/21 08:56:53;;;;;;;11.90;9.50;;;;;;;11.14;97.83;98912.31;109189;275;38193;-68
2023/10/21 08:59:29;;;;;;;13.60;10.40;;;;;;;11.12;97.56;98912.93;109149;275;39628;-70
2023/10/21 09:02:03;;;;;;;10.50;9.40;;;;;;;11.17;97.88;98915.73;109205;275;38674;-70
2023/10/21 09:04:37;;;;;;;15.20;10.70;;;;;;;11.23;98.01;98915.16;109178;275;39458;-72
2023/10/21 09:07:12;;;;;;;15.10;10.80;;;;;;;11.30;98.16;98917.49;109034;275;39115;-71
2023/10/21 09:09:51;;;;;;;12.20;10.00;;;;;;;11.36;98.04;98918.02;109236;275;39616;-70
2023/10/21 09:12:32;;;;;;;11.80;9.70;;;;;;;11.40;97.80;98913.38;108992;275;40687;-71
2023/10/21 09:15:09;;;;;;;12.30;9.60;;;;;;;11.46;97.74;98920.31;109170;275;38413;-71
2023/10/21 09:17:46;;;;;;;16.00;10.40;;;;;;;11.53;97.76;98935.77;109204;268;38207;-70
2023/10/21 09:20:26;;;;;;;11.10;10.00;;;;;;;11.59;97.42;98951.48;109160;275;38168;-70
2023/10/21 09:23:09;;;;;;;12.80;10.00;;;;;;;11.65;97.40;98966.63;109238;275;38593;-67
2023/10/21 09:25:56;;;;;;;12.30;9.10;;;;;;;11.72;97.33;98973.19;109189;275;39255;-67
2023/10/21 09:28:33;;;;;;;10.70;9.50;;;;;;;11.80;97.45;98975.60;109334;275;38209;-71
2023/10/21 09:31:10;;;;;;;13.60;10.60;;;;;;;11.89;97.27;98984.83;109375;275;38181;-72
2023/10/21 09:33:59;;;;;;;13.00;10.60;;;;;;;11.98;97.39;98987.54;109326;275;38216;-67
2023/10/21 09:36:44;;;;;;;15.30;10.00;;;;;;;12.08;97.27;98990.75;109267;275;38277;-67
2023/10/21 09:39:17;;;;;;;14.50;9.60;;;;;;;12.16;97.08;98991.95;109318;275;38187;-71
2023/10/21 09:41:54;;;;;;;10.70;9.30;;;;;;;12.26;97.07;98996.04;109339;275;38626;-71
2023/10/21 09:44:38;;;;;;;11.50;10.20;;;;;;;12.35;96.79;98993.50;109373;275;38628;-68
2023/10/21 09:47:15;;;;;;;12.30;10.80;;;;;;;12.42;96.39;98990.39;109293;275;38184;-68
2023/10/21 09:49:50;;;;;;;13.40;10.40;;;;;;;12.46;96.08;98989.77;109301;275;38953;-70
2023/10/21 09:52:37;;;;;;;11.40;10.00;;;;;;;12.50;95.81;98998.21;109319;275;39589;-70
2023/10/21 09:55:13;;;;;;;18.20;14.30;;;;;;;12.53;95.57;98994.03;109353;275;38388;-72
2023/10/21 09:57:48;;;;;;;15.90;12.80;;;;;;;12.57;95.37;98999.30;109331;275;38214;-71
2023/10/21 10:00:24;;;;;;;11.40;10.30;;;;;;;12.62;95.37;99001.59;109367;275;38389;-71
2023/10/21 10:03:06;;;;;;;20.80;15.20;;;;;;;12.69;95.44;98993.80;109395;275;39394;-68
2023/10/21 10:05:52;;;;;;;40.70;27.10;;;;;;;12.73;94.79;98986.17;109291;275;38163;-68
2023/10/21 10:08:37;;;;;;;21.30;15.00;;;;;;;12.78;94.99;98979.14;109353;275;38313;-68
2023/10/21 10:11:18;;;;;;;14.70;11.60;;;;;;;12.87;94.84;98980.61;109334;275;38512;-67
2023/10/21 10:14:01;;;;;;;15.80;13.20;;;;;;;13.04;95.37;98975.42;109315;275;38494;-67
2023/10/21 10:16:44;;;;;;;24.20;15.10;;;;;;;13.27;95.51;98969.98;109309;275;38659;-67
2023/10/21 10:19:41;;;;;;;17.30;13.10;;;;;;;13.42;94.42;98966.79;109318;275;38188;-70
2023/10/21 10:22:32;;;;;;;15.40;13.00;;;;;;;13.44;93.30;98972.61;109344;275;39364;-72
2023/10/21 10:25:11;;;;;;;13.40;11.70;;;;;;;13.43;92.86;98970.91;109290;275;38177;-67
2023/10/21 10:27:49;;;;;;;11.30;9.70;;;;;;;13.45;92.49;98973.80;109273;275;39445;-68
2023/10/21 10:30:26;;;;;;;13.40;11.20;;;;;;;13.49;92.42;98968.21;109191;275;38159;-68
2023/10/21 10:33:07;;;;;;;51.00;32.60;;;;;;;13.55;92.55;98961.88;109241;275;39413;-67
2023/10/21 10:35:48;;;;;;;12.50;11.10;;;;;;;13.62;92.25;98975.16;109259;275;38362;-67
2023/10/21 10:38:27;;;;;;;12.30;10.80;;;;;;;13.72;92.40;98970.55;109006;275;39573;-70
2023/10/21 10:41:07;;;;;;;15.80;11.40;;;;;;;13.83;91.70;98990.13;109271;275;38154;-70
2023/10/21 10:43:44;;;;;;;14.20;11.90;;;;;;;13.86;90.79;99005.80;109324;275;39500;-70
2023/10/21 10:46:21;;;;;;;14.00;10.70;;;;;;;13.85;90.29;99015.40;109218;275;39035;-70
2023/10/21 10:49:08;;;;;;;16.40;10.90;;;;;;;13.88;90.99;99012.14;108454;275;788999;-68
2023/10/21 10:51:51;;;;;;;12.20;10.20;;;;;;;13.90;90.58;99009.73;109223;275;38221;-67
2023/10/21 10:54:34;;;;;;;11.20;10.00;;;;;;;13.94;90.69;99008.21;109230;275;39257;-67
2023/10/21 10:57:20;;;;;;;13.10;9.90;;;;;;;14.00;90.37;99008.48;109166;275;39466;-67
2023/10/21 11:00:03;;;;;;;12.50;10.10;;;;;;;14.01;89.71;99013.64;109233;275;38561;-67
2023/10/21 11:02:48;;;;;;;14.80;10.90;;;;;;;14.00;89.47;99018.17;109180;275;38191;-69
2023/10/21 11:05:28;;;;;;;13.30;10.60;;;;;;;14.00;89.56;99022.35;109217;275;38188;-73
2023/10/21 11:08:07;;;;;;;11.70;10.30;;;;;;;14.05;89.63;99029.52;109267;275;38204;-66
2023/10/21 11:10:45;;;;;;;;;;;;;;;14.10;89.99;99029.12;109217;275;38177;-67
2023/10/21 11:13:21;;;;;;;41.20;25.80;;;;;;;14.12;89.97;99018.61;109224;275;38564;-67
2023/10/21 11:16:05;;;;;;;30.70;21.00;;;;;;;14.10;89.31;99011.91;109172;275;38495;-66
2023/10/21 11:18:42;;;;;;;18.10;14.90;;;;;;;14.07;89.14;99023.56;109094;275;175222;-69
2023/10/21 11:21:20;;;;;;;27.70;16.90;;;;;;;14.07;89.04;99026.19;109182;275;39980;-69
2023/10/21 11:23:54;;;;;;;25.40;15.90;;;;;;;14.05;88.94;99033.86;109219;275;39310;-70
2023/10/21 11:26:29;;;;;;;14.40;11.70;;;;;;;14.07;89.17;99035.63;109173;275;38339;-71
2023/10/21 11:29:05;;;;;;;76.90;38.60;;;;;;;14.09;89.09;99040.13;109171;275;39421;-69
2023/10/21 11:31:40;;;;;;;72.20;31.90;;;;;;;14.08;89.04;99046.48;109232;275;39110;-69
2023/10/21 11:34:22;;;;;;;50.80;25.00;;;;;;;14.11;89.30;99060.13;109252;275;39187;-66
2023/10/21 11:37:04;;;;;;;63.10;33.90;;;;;;;14.16;89.38;99075.84;109189;275;38688;-65
2023/10/21 11:39:45;;;;;;;36.90;25.50;;;;;;;14.27;89.68;99077.68;109182;275;39008;-65
2023/10/21 11:42:27;;;;;;;24.70;19.90;;;;;;;14.42;90.17;99070.96;109142;275;38788;-67
2023/10/21 11:45:07;;;;;;;;;;;;;;;14.54;89.82;99080.98;109165;275;38297;-66
2023/10/21 11:47:47;;;;;;;17.60;15.40;;;;;;;14.61;89.57;99093.09;109190;275;38276;-69
2023/10/21 11:50:23;;;;;;;14.70;12.00;;;;;;;14.65;89.12;99094.34;109186;275;38174;-69
2023/10/21 11:53:06;;;;;;;17.40;14.40;;;;;;;14.78;89.33;99091.98;109208;275;39402;-66
2023/10/21 12:22:27;;;;;;;14.50;11.40;;;;;;;15.27;86.73;99129.16;109169;275;38790;-69
2023/10/21 12:25:43;;;;;;;14.40;11.30;;;;;;;15.27;86.40;99135.50;109223;275;39003;-70
2023/10/21 12:37:28;;;;;;;15.90;13.00;;;;;;;15.47;86.41;99136.91;109143;275;38316;-67
2023/10/21 12:40:29;;;;;;;14.60;11.30;;;;;;;15.51;86.52;99140.50;109229;275;38181;-69
2023/10/21 12:43:25;;;;;;;13.50;12.10;;;;;;;15.52;86.25;99151.31;109228;275;38519;-67
2023/10/21 12:46:17;;;;;;;17.70;15.10;;;;;;;15.51;86.01;99149.98;109142;275;38753;-67
2023/10/21 12:48:57;;;;;;;15.50;13.30;;;;;;;15.49;85.91;99146.06;109129;275;38148;-67
2023/10/21 12:51:33;;;;;;;16.80;13.20;;;;;;;15.48;85.79;99141.89;109116;275;38387;-67
2023/10/21 12:54:11;;;;;;;17.90;12.30;;;;;;;15.49;85.94;99140.62;109138;275;38727;-69
2023/10/21 12:56:49;;;;;;;15.50;13.00;;;;;;;15.53;85.97;99151.54;109127;275;39014;-70
2023/10/21 12:59:25;;;;;;;17.80;13.50;;;;;;;15.54;85.64;99158.73;109169;275;39437;-67